Hicksville, OH

10:06 AM EST on January 18, 2017 (GMT -0500)
Hicksville | | Change Station
Active Advisory: Flood Warning

Elev 774 ft 41.30 °N, 84.76 °W | Updated 4 seconds ago

Overcast
Overcast
35.6 °F
Feels Like 33 °F
N
3.2
Wind Variable Wind from NW
Gusts 6.3 mph

Today
High -- | Low -- °F
--% Chance of Precip.
Yesterday
High -- | Low -- °F
Precip. -- in
Pressure 30.15 in
Visibility 4.0 miles
Clouds Overcast 500 ft
Windchill 33 °F
Dew Point 35 °F
Humidity 99%
Rainfall 0.00 in
Snow Depth Not available.
8:00 AM 5:38 PM
Waning Gibbous, 62% visible
METAR KGWB 181455Z AUTO 26007KT 225V285 4SM BR OVC005 01/00 A3015 RMK AO2
Pressure 30.15 in
Visibility 4.0 miles
Clouds Overcast 500 ft
Windchill 33 °F
Dew Point 35 °F
Humidity 99%
Rainfall 0.00 in
Snow Depth Not available.
8:00 AM 5:38 PM
Waning Gibbous, 62% visible
METAR KGWB 181455Z AUTO 26007KT 225V285 4SM BR OVC005 01/00 A3015 RMK AO2

Get Your Daily Forecast Email!

Thanks for signing up!

Be on the lookout for a verification email in your inbox.

You'll start receiving the daily forecast at 8 AM.

×

10-Day Weather Forecast

Almanac

Astronomy

Jan. 18, 2017 Rise Set
Actual Time
Civil Twilight
Nautical Twilight
Astronomical Twilight
Moon
Length of Visible Light
Length of Day
Tomorrow will be .
, % of the Moon is Illuminated

Today's Extremes

State Highs State Lows

Community

WunderPhotos

Upload Photos

1,962,540 photos uploaded!

WunderBlog® & News

Nearby

Air Quality

  Air Quality AQ Index Pollutant
Not available.

Snow Depth

Station Depth Elevation

Earthquake Activity

City Distance Mag. Time & Date
Minimum magnitude displayed is 2.5.

Coastal Water Temperatures

Place Temperature

Stations

Nearby Weather Stations

Station Location Temp. Windchill Dew Point Humidity Wind Precip. Elev Updated Type
                   

Watches & Warnings

Flood Warning
Issued: 9:03 PM EST Jan. 17, 2017 – National Weather Service

The Flood Warning continues for
the Tiffin River near Stryker
* until late Sunday night.
* At 8 PM Tuesday the stage was 11.2 feet and falling.
* Minor flooding is occurring and minor flooding is forecast.
* Flood stage is 11.0 feet.
* Forecast... the river will rise to a crest near 11.7 feet around 7
am Friday January 20 and fall below flood stage around 1 am Sunday
January 22.
* At 12.0 feet... portions of State Route 66 flood north of Archbold.
* This crest compares to a previous crest of 11.9 feet which occurred
on Jun 1 2015.


Lat... Lon 4130 8444 4149 8446 4159 8439 4159 8429
      4130 8438